PWSweather.com
Personal Weather Stations
Station Observations
NIGHT1
EastleighGB

EastleighGB

Lat: 50.966307, Lon: -1.380982

Elevation: 78

Station Type: Davis VP2 with daytime FARS

Latest ConditionsUpdated 12:50:00 PM GMT Monday, Jan 16, 2017
Currently Today's Max Today's Min Today's Average
Temperature 42.5°F5.8°C 48.4°F9.1°C 42.4°F5.8°C 46.1°F7.8°C
Dew Point 42.0°F5.6°C 47.3°F8.5°C 41.9°F5.5°C 45.4°F7.4°C
Winds 2.3 mph ESE3.7 kmh ESE 4.8 mph ESE7.7 kmh ESE - 2.3 mph 3.7 kmh
Wind Gusts 6.0 mph9.7 kmh 11.0 mph17.7 kmh - -
Humidity 98% 98% 96% 97%
Pressure 30.30 in1026.1 mb 30.30 in1026.1 mb 30.21 in1023.0 mb -
Precipitation - 0.09 in2.3 mm - -
Hour Temp Dew Point Humidity Winds Wind Gusts Pressure Precip Precip Rate Daily Precip Total
12:50 PM 42.5°F5.8°C 42.0°F5.6°C 98% 2.3 mph ESE3.7 kmh ESE 6.0 mph9.7 kmh 30.30 in1026.1 mb 0.01 in0.3 mm 0.00 in0.0 mm 0.09 in2.3 mm
12:45 PM 42.5°F5.8°C 42.0°F5.6°C 98% 2.6 mph ESE4.2 kmh ESE 5.0 mph8.0 kmh 30.30 in1026.1 mb 0.01 in0.3 mm 0.00 in0.0 mm 0.09 in2.3 mm
12:40 PM 42.5°F5.8°C 42.0°F5.6°C 98% 2.9 mph ESE4.7 kmh ESE 6.0 mph9.7 kmh 30.30 in1026.1 mb 0.01 in0.3 mm 0.00 in0.0 mm 0.09 in2.3 mm
12:35 PM 42.6°F5.9°C 42.1°F5.6°C 98% 3.5 mph ESE5.6 kmh ESE 7.0 mph11.3 kmh 30.30 in1026.1 mb 0.01 in0.3 mm 0.12 in3.0 mm 0.09 in2.3 mm
12:30 PM 42.5°F5.8°C 42.0°F5.6°C 98% 4.0 mph ESE6.4 kmh ESE 7.0 mph11.3 kmh 30.30 in1026.1 mb 0.00 in0.0 mm 0.00 in0.0 mm 0.08 in2.0 mm
12:25 PM 42.5°F5.8°C 42.0°F5.6°C 98% 4.0 mph ESE6.4 kmh ESE 7.0 mph11.3 kmh 30.30 in1026.1 mb 0.00 in0.0 mm 0.00 in0.0 mm 0.08 in2.0 mm
12:20 PM 42.4°F5.8°C 41.9°F5.5°C 98% 3.5 mph ESE5.6 kmh ESE 7.0 mph11.3 kmh 30.30 in1026.1 mb 0.00 in0.0 mm 0.00 in0.0 mm 0.08 in2.0 mm
12:15 PM 42.4°F5.8°C 41.9°F5.5°C 98% 3.3 mph ESE5.3 kmh ESE 7.0 mph11.3 kmh 30.30 in1026.1 mb 0.01 in0.3 mm 0.00 in0.0 mm 0.08 in2.0 mm
12:10 PM 42.5°F5.8°C 42.0°F5.6°C 98% 3.8 mph ESE6.1 kmh ESE 6.0 mph9.7 kmh 30.30 in1026.1 mb 0.01 in0.3 mm 0.00 in0.0 mm 0.08 in2.0 mm
12:05 PM 42.5°F5.8°C 42.0°F5.6°C 98% 3.8 mph ESE6.1 kmh ESE 7.0 mph11.3 kmh 30.30 in1026.1 mb 0.01 in0.3 mm 0.00 in0.0 mm 0.08 in2.0 mm
12:00 PM 42.4°F5.8°C 41.9°F5.5°C 98% 3.3 mph ESE5.3 kmh ESE 7.0 mph11.3 kmh 30.30 in1026.1 mb 0.01 in0.3 mm 0.00 in0.0 mm 0.08 in2.0 mm
11:55 AM 42.5°F5.8°C 42.0°F5.6°C 98% 3.0 mph ESE4.8 kmh ESE 6.0 mph9.7 kmh 30.30 in1026.1 mb 0.01 in0.3 mm 0.00 in0.0 mm 0.08 in2.0 mm
11:50 AM 42.7°F5.9°C 42.2°F5.7°C 98% 3.0 mph ESE4.8 kmh ESE 6.0 mph9.7 kmh 30.30 in1026.1 mb 0.01 in0.3 mm 0.00 in0.0 mm 0.08 in2.0 mm
11:45 AM 42.6°F5.9°C 42.1°F5.6°C 98% 3.0 mph ESE4.8 kmh ESE 6.0 mph9.7 kmh 30.30 in1026.1 mb 0.01 in0.3 mm 0.00 in0.0 mm 0.08 in2.0 mm
11:40 AM 42.5°F5.8°C 42.0°F5.6°C 98% 3.0 mph ESE4.8 kmh ESE 6.0 mph9.7 kmh 30.30 in1026.1 mb 0.01 in0.3 mm 0.00 in0.0 mm 0.08 in2.0 mm
11:35 AM 42.5°F5.8°C 42.0°F5.6°C 98% 3.0 mph ESE4.8 kmh ESE 6.0 mph9.7 kmh 30.30 in1026.1 mb 0.02 in0.5 mm 0.00 in0.0 mm 0.08 in2.0 mm
11:30 AM 42.6°F5.9°C 42.1°F5.6°C 98% 3.2 mph ESE5.1 kmh ESE 6.0 mph9.7 kmh 30.30 in1026.1 mb 0.02 in0.5 mm 0.00 in0.0 mm 0.08 in2.0 mm
11:25 AM 42.6°F5.9°C 42.1°F5.6°C 98% 3.6 mph ESE5.8 kmh ESE 6.0 mph9.7 kmh 30.30 in1026.1 mb 0.02 in0.5 mm 0.00 in0.0 mm 0.08 in2.0 mm
11:20 AM 42.5°F5.8°C 42.0°F5.6°C 98% 3.4 mph ESE5.5 kmh ESE 6.0 mph9.7 kmh 30.30 in1026.1 mb 0.02 in0.5 mm 0.12 in3.0 mm 0.08 in2.0 mm
11:15 AM 42.6°F5.9°C 42.1°F5.6°C 98% 3.0 mph ESE4.8 kmh ESE 6.0 mph9.7 kmh 30.30 in1026.1 mb 0.01 in0.3 mm 0.00 in0.0 mm 0.07 in1.8 mm
11:10 AM 42.8°F6.0°C 42.3°F5.7°C 98% 2.8 mph SE4.5 kmh SE 7.0 mph11.3 kmh 30.30 in1026.1 mb 0.01 in0.3 mm 0.00 in0.0 mm 0.07 in1.8 mm
11:05 AM 42.8°F6.0°C 42.3°F5.7°C 98% 2.8 mph SE4.5 kmh SE 7.0 mph11.3 kmh 30.30 in1026.1 mb 0.01 in0.3 mm 0.00 in0.0 mm 0.07 in1.8 mm
11:00 AM 42.9°F6.1°C 42.4°F5.8°C 98% 2.9 mph SE4.7 kmh SE 5.0 mph8.0 kmh 30.30 in1026.1 mb 0.01 in0.3 mm 0.00 in0.0 mm 0.07 in1.8 mm
10:55 AM 42.8°F6.0°C 42.3°F5.7°C 98% 2.9 mph SSE4.7 kmh SSE 5.0 mph8.0 kmh 30.30 in1026.1 mb 0.01 in0.3 mm 0.00 in0.0 mm 0.07 in1.8 mm
10:50 AM 42.8°F6.0°C 42.3°F5.7°C 98% 3.0 mph SSE4.8 kmh SSE 7.0 mph11.3 kmh 30.30 in1026.1 mb 0.02 in0.5 mm 0.00 in0.0 mm 0.07 in1.8 mm
10:45 AM 42.8°F6.0°C 42.3°F5.7°C 98% 3.0 mph SSE4.8 kmh SSE 7.0 mph11.3 kmh 30.30 in1026.1 mb 0.02 in0.5 mm 0.00 in0.0 mm 0.07 in1.8 mm
10:40 AM 42.7°F5.9°C 42.2°F5.7°C 98% 3.0 mph SE4.8 kmh SE 7.0 mph11.3 kmh 30.30 in1026.1 mb 0.02 in0.5 mm 0.12 in3.0 mm 0.07 in1.8 mm
10:35 AM 42.8°F6.0°C 42.3°F5.7°C 98% 3.0 mph ESE4.8 kmh ESE 6.0 mph9.7 kmh 30.30 in1026.1 mb 0.01 in0.3 mm 0.00 in0.0 mm 0.06 in1.5 mm
10:30 AM 42.8°F6.0°C 42.3°F5.7°C 98% 3.0 mph ESE4.8 kmh ESE 6.0 mph9.7 kmh 30.30 in1026.1 mb 0.01 in0.3 mm 0.00 in0.0 mm 0.06 in1.5 mm
10:25 AM 42.8°F6.0°C 42.3°F5.7°C 98% 2.9 mph ESE4.7 kmh ESE 6.0 mph9.7 kmh 30.30 in1026.1 mb 0.01 in0.3 mm 0.00 in0.0 mm 0.06 in1.5 mm
10:20 AM 42.9°F6.1°C 42.4°F5.8°C 98% 2.9 mph ESE4.7 kmh ESE 6.0 mph9.7 kmh 30.30 in1026.1 mb 0.01 in0.3 mm 0.00 in0.0 mm 0.06 in1.5 mm
10:15 AM 42.9°F6.1°C 42.4°F5.8°C 98% 3.0 mph SE4.8 kmh SE 6.0 mph9.7 kmh 30.30 in1026.1 mb 0.02 in0.5 mm 0.00 in0.0 mm 0.06 in1.5 mm
10:10 AM 42.9°F6.1°C 42.4°F5.8°C 98% 3.0 mph ESE4.8 kmh ESE 6.0 mph9.7 kmh 30.30 in1026.1 mb 0.02 in0.5 mm 0.00 in0.0 mm 0.06 in1.5 mm
10:05 AM 42.9°F6.1°C 42.4°F5.8°C 98% 3.0 mph SE4.8 kmh SE 6.0 mph9.7 kmh 30.30 in1026.1 mb 0.02 in0.5 mm 0.00 in0.0 mm 0.06 in1.5 mm
10:00 AM 43.1°F6.2°C 42.6°F5.9°C 98% 3.0 mph SE4.8 kmh SE 7.0 mph11.3 kmh 30.29 in1025.7 mb 0.02 in0.5 mm 0.00 in0.0 mm 0.06 in1.5 mm
09:55 AM 43.1°F6.2°C 42.6°F5.9°C 98% 2.6 mph SE4.2 kmh SE 7.0 mph11.3 kmh 30.29 in1025.7 mb 0.02 in0.5 mm 0.00 in0.0 mm 0.06 in1.5 mm
09:50 AM 43.2°F6.2°C 42.7°F5.9°C 98% 2.6 mph SE4.2 kmh SE 5.0 mph8.0 kmh 30.29 in1025.7 mb 0.02 in0.5 mm 0.00 in0.0 mm 0.06 in1.5 mm
09:45 AM 43.2°F6.2°C 42.7°F5.9°C 98% 3.1 mph SE5.0 kmh SE 7.0 mph11.3 kmh 30.29 in1025.7 mb 0.02 in0.5 mm 0.00 in0.0 mm 0.06 in1.5 mm
09:40 AM 43.2°F6.2°C 42.7°F5.9°C 98% 3.1 mph SE5.0 kmh SE 8.0 mph12.9 kmh 30.29 in1025.7 mb 0.02 in0.5 mm 0.00 in0.0 mm 0.06 in1.5 mm
09:35 AM 43.3°F6.3°C 42.8°F6.0°C 98% 2.9 mph SE4.7 kmh SE 8.0 mph12.9 kmh 30.29 in1025.7 mb 0.02 in0.5 mm 0.00 in0.0 mm 0.06 in1.5 mm
09:30 AM 43.5°F6.4°C 43.0°F6.1°C 98% 2.5 mph SE4.0 kmh SE 8.0 mph12.9 kmh 30.29 in1025.7 mb 0.02 in0.5 mm 0.00 in0.0 mm 0.06 in1.5 mm
09:25 AM 43.7°F6.5°C 43.2°F6.2°C 98% 2.6 mph SE4.2 kmh SE 5.0 mph8.0 kmh 30.29 in1025.7 mb 0.02 in0.5 mm 0.00 in0.0 mm 0.06 in1.5 mm
09:20 AM 43.7°F6.5°C 43.2°F6.2°C 98% 3.0 mph SE4.8 kmh SE 6.0 mph9.7 kmh 30.28 in1025.4 mb 0.02 in0.5 mm 0.00 in0.0 mm 0.06 in1.5 mm
09:15 AM 43.6°F6.4°C 43.1°F6.2°C 98% 3.1 mph SE5.0 kmh SE 6.0 mph9.7 kmh 30.29 in1025.7 mb 0.02 in0.5 mm 0.00 in0.0 mm 0.05 in1.3 mm
09:10 AM 43.7°F6.5°C 43.2°F6.2°C 98% 3.6 mph SE5.8 kmh SE 7.0 mph11.3 kmh 30.29 in1025.7 mb 0.02 in0.5 mm 0.00 in0.0 mm 0.05 in1.3 mm
09:05 AM 43.7°F6.5°C 43.2°F6.2°C 98% 3.6 mph SE5.8 kmh SE 7.0 mph11.3 kmh 30.29 in1025.7 mb 0.02 in0.5 mm 0.00 in0.0 mm 0.05 in1.3 mm
09:00 AM 43.8°F6.6°C 43.3°F6.3°C 98% 3.1 mph ESE5.0 kmh ESE 7.0 mph11.3 kmh 30.28 in1025.4 mb 0.02 in0.5 mm 0.00 in0.0 mm 0.05 in1.3 mm
08:55 AM 43.8°F6.6°C 43.3°F6.3°C 98% 3.0 mph ESE4.8 kmh ESE 7.0 mph11.3 kmh 30.28 in1025.4 mb 0.02 in0.5 mm 0.00 in0.0 mm 0.05 in1.3 mm
08:50 AM 43.8°F6.6°C 43.3°F6.3°C 98% 3.4 mph ESE5.5 kmh ESE 6.0 mph9.7 kmh 30.28 in1025.4 mb 0.02 in0.5 mm 0.00 in0.0 mm 0.04 in1.0 mm
08:45 AM 43.8°F6.6°C 43.3°F6.3°C 98% 3.8 mph SE6.1 kmh SE 11.0 mph17.7 kmh 30.28 in1025.4 mb 0.02 in0.5 mm 0.00 in0.0 mm 0.04 in1.0 mm
08:40 AM 43.8°F6.6°C 43.3°F6.3°C 98% 3.4 mph SE5.5 kmh SE 11.0 mph17.7 kmh 30.28 in1025.4 mb 0.02 in0.5 mm 0.00 in0.0 mm 0.04 in1.0 mm
08:35 AM 44.0°F6.7°C 43.5°F6.4°C 98% 3.0 mph SE4.8 kmh SE 7.0 mph11.3 kmh 30.28 in1025.4 mb 0.02 in0.5 mm 0.12 in3.0 mm 0.04 in1.0 mm
08:30 AM 44.2°F6.8°C 43.7°F6.5°C 98% 3.0 mph SE4.8 kmh SE 7.0 mph11.3 kmh 30.28 in1025.4 mb 0.01 in0.3 mm 0.00 in0.0 mm 0.03 in0.8 mm
08:25 AM 44.3°F6.8°C 43.8°F6.6°C 98% 3.0 mph SE4.8 kmh SE 7.0 mph11.3 kmh 30.28 in1025.4 mb 0.01 in0.3 mm 0.00 in0.0 mm 0.03 in0.8 mm
08:20 AM 44.4°F6.9°C 43.9°F6.6°C 98% 3.4 mph ESE5.5 kmh ESE 7.0 mph11.3 kmh 30.28 in1025.4 mb 0.01 in0.3 mm 0.00 in0.0 mm 0.03 in0.8 mm
08:15 AM 44.5°F6.9°C 44.0°F6.7°C 98% 4.7 mph SE7.6 kmh SE 7.0 mph11.3 kmh 30.28 in1025.4 mb 0.01 in0.3 mm 0.00 in0.0 mm 0.03 in0.8 mm
08:10 AM 44.7°F7.1°C 44.2°F6.8°C 98% 4.8 mph ESE7.7 kmh ESE 8.0 mph12.9 kmh 30.27 in1025.1 mb 0.01 in0.3 mm 0.00 in0.0 mm 0.03 in0.8 mm
08:05 AM 44.9°F7.2°C 44.1°F6.7°C 97% 2.5 mph ESE4.0 kmh ESE 11.0 mph17.7 kmh 30.27 in1025.1 mb 0.01 in0.3 mm 0.12 in3.0 mm 0.03 in0.8 mm
08:00 AM 45.9°F7.7°C 45.4°F7.4°C 98% 0.5 mph E0.8 kmh E 11.0 mph17.7 kmh 30.27 in1025.1 mb 0.00 in0.0 mm 0.00 in0.0 mm 0.02 in0.5 mm
07:55 AM 47.7°F8.7°C 47.2°F8.4°C 98% Calm Calm 2.0 mph3.2 kmh 30.27 in1025.1 mb 0.01 in0.3 mm 0.00 in0.0 mm 0.02 in0.5 mm
07:50 AM 47.8°F8.8°C 47.3°F8.5°C 98% Calm Calm 3.0 mph4.8 kmh 30.27 in1025.1 mb 0.01 in0.3 mm 0.00 in0.0 mm 0.02 in0.5 mm
07:45 AM 47.8°F8.8°C 47.3°F8.5°C 98% 0.2 mph NW0.3 kmh NW 3.0 mph4.8 kmh 30.26 in1024.7 mb 0.01 in0.3 mm 0.00 in0.0 mm 0.02 in0.5 mm
07:40 AM 47.8°F8.8°C 47.3°F8.5°C 98% 0.2 mph NW0.3 kmh NW 2.0 mph3.2 kmh 30.26 in1024.7 mb 0.01 in0.3 mm 0.00 in0.0 mm 0.02 in0.5 mm
07:35 AM 47.8°F8.8°C 47.3°F8.5°C 98% Calm Calm 2.0 mph3.2 kmh 30.26 in1024.7 mb 0.01 in0.3 mm 0.00 in0.0 mm 0.02 in0.5 mm
07:30 AM 47.8°F8.8°C 47.3°F8.5°C 98% Calm Calm 2.0 mph3.2 kmh 30.26 in1024.7 mb 0.01 in0.3 mm 0.00 in0.0 mm 0.02 in0.5 mm
07:25 AM 47.8°F8.8°C 47.3°F8.5°C 98% Calm Calm 2.0 mph3.2 kmh 30.26 in1024.7 mb 0.01 in0.3 mm 0.00 in0.0 mm 0.02 in0.5 mm
07:20 AM 47.8°F8.8°C 47.3°F8.5°C 98% 0.2 mph NW0.3 kmh NW 3.0 mph4.8 kmh 30.26 in1024.7 mb 0.01 in0.3 mm 0.00 in0.0 mm 0.02 in0.5 mm
07:15 AM 47.8°F8.8°C 47.3°F8.5°C 98% 0.7 mph NW1.1 kmh NW 3.0 mph4.8 kmh 30.26 in1024.7 mb 0.01 in0.3 mm 0.00 in0.0 mm 0.02 in0.5 mm
07:10 AM 47.8°F8.8°C 47.3°F8.5°C 98% 0.8 mph NW1.3 kmh NW 3.0 mph4.8 kmh 30.25 in1024.4 mb 0.01 in0.3 mm 0.00 in0.0 mm 0.02 in0.5 mm
07:05 AM 47.8°F8.8°C 47.3°F8.5°C 98% 0.3 mph NW0.5 kmh NW 3.0 mph4.8 kmh 30.25 in1024.4 mb 0.01 in0.3 mm 0.00 in0.0 mm 0.02 in0.5 mm
07:00 AM 47.8°F8.8°C 47.3°F8.5°C 98% 0.5 mph NW0.8 kmh NW 3.0 mph4.8 kmh 30.25 in1024.4 mb 0.01 in0.3 mm 0.01 in0.3 mm 0.02 in0.5 mm
06:55 AM 47.7°F8.7°C 47.2°F8.4°C 98% 1.0 mph NW1.6 kmh NW 4.0 mph6.4 kmh 30.25 in1024.4 mb 0.00 in0.0 mm 0.00 in0.0 mm 0.02 in0.5 mm
06:50 AM 47.8°F8.8°C 47.3°F8.5°C 98% 1.0 mph NW1.6 kmh NW 4.0 mph6.4 kmh 30.25 in1024.4 mb 0.00 in0.0 mm 0.00 in0.0 mm 0.02 in0.5 mm
06:45 AM 47.8°F8.8°C 47.3°F8.5°C 98% 1.0 mph NW1.6 kmh NW 3.0 mph4.8 kmh 30.25 in1024.4 mb 0.00 in0.0 mm 0.00 in0.0 mm 0.02 in0.5 mm
06:40 AM 47.8°F8.8°C 47.3°F8.5°C 98% 1.0 mph NW1.6 kmh NW 3.0 mph4.8 kmh 30.25 in1024.4 mb 0.00 in0.0 mm 0.00 in0.0 mm 0.02 in0.5 mm
06:35 AM 47.7°F8.7°C 47.2°F8.4°C 98% 1.2 mph NW1.9 kmh NW 3.0 mph4.8 kmh 30.25 in1024.4 mb 0.00 in0.0 mm 0.00 in0.0 mm 0.02 in0.5 mm
06:30 AM 47.7°F8.7°C 47.2°F8.4°C 98% 1.7 mph NW2.7 kmh NW 3.0 mph4.8 kmh 30.25 in1024.4 mb 0.00 in0.0 mm 0.00 in0.0 mm 0.02 in0.5 mm
06:25 AM 47.7°F8.7°C 47.2°F8.4°C 98% 2.0 mph NW3.2 kmh NW 4.0 mph6.4 kmh 30.25 in1024.4 mb 0.00 in0.0 mm 0.00 in0.0 mm 0.02 in0.5 mm
06:20 AM 47.7°F8.7°C 47.2°F8.4°C 98% 2.0 mph NW3.2 kmh NW 4.0 mph6.4 kmh 30.24 in1024.0 mb 0.00 in0.0 mm 0.00 in0.0 mm 0.02 in0.5 mm
06:15 AM 47.7°F8.7°C 47.2°F8.4°C 98% 2.0 mph NW3.2 kmh NW 4.0 mph6.4 kmh 30.24 in1024.0 mb 0.00 in0.0 mm 0.00 in0.0 mm 0.02 in0.5 mm
06:10 AM 47.8°F8.8°C 47.0°F8.3°C 97% 2.0 mph NW3.2 kmh NW 5.0 mph8.0 kmh 30.24 in1024.0 mb 0.01 in0.3 mm 0.00 in0.0 mm 0.02 in0.5 mm
06:05 AM 47.8°F8.8°C 47.0°F8.3°C 97% 2.0 mph NW3.2 kmh NW 6.0 mph9.7 kmh 30.24 in1024.0 mb 0.01 in0.3 mm 0.00 in0.0 mm 0.02 in0.5 mm
06:00 AM 47.8°F8.8°C 47.0°F8.3°C 97% 2.0 mph NW3.2 kmh NW 6.0 mph9.7 kmh 30.25 in1024.4 mb 0.01 in0.3 mm 0.00 in0.0 mm 0.02 in0.5 mm
05:55 AM 47.7°F8.7°C 46.9°F8.3°C 97% 2.0 mph NW3.2 kmh NW 5.0 mph8.0 kmh 30.24 in1024.0 mb 0.01 in0.3 mm 0.00 in0.0 mm 0.02 in0.5 mm
05:50 AM 47.7°F8.7°C 46.9°F8.3°C 97% 2.0 mph NW3.2 kmh NW 5.0 mph8.0 kmh 30.24 in1024.0 mb 0.01 in0.3 mm 0.00 in0.0 mm 0.02 in0.5 mm
05:45 AM 47.7°F8.7°C 46.9°F8.3°C 97% 2.0 mph NW3.2 kmh NW 7.0 mph11.3 kmh 30.24 in1024.0 mb 0.01 in0.3 mm 0.00 in0.0 mm 0.02 in0.5 mm
05:40 AM 47.7°F8.7°C 46.9°F8.3°C 97% 2.0 mph NW3.2 kmh NW 7.0 mph11.3 kmh 30.24 in1024.0 mb 0.01 in0.3 mm 0.00 in0.0 mm 0.02 in0.5 mm
05:35 AM 47.8°F8.8°C 47.0°F8.3°C 97% 2.0 mph NW3.2 kmh NW 4.0 mph6.4 kmh 30.24 in1024.0 mb 0.01 in0.3 mm 0.00 in0.0 mm 0.02 in0.5 mm
05:30 AM 47.8°F8.8°C 47.0°F8.3°C 97% 2.0 mph NW3.2 kmh NW 5.0 mph8.0 kmh 30.24 in1024.0 mb 0.01 in0.3 mm 0.00 in0.0 mm 0.02 in0.5 mm
05:25 AM 47.7°F8.7°C 46.9°F8.3°C 97% 2.0 mph NW3.2 kmh NW 5.0 mph8.0 kmh 30.23 in1023.7 mb 0.01 in0.3 mm 0.00 in0.0 mm 0.02 in0.5 mm
05:20 AM 47.8°F8.8°C 47.0°F8.3°C 97% 2.0 mph NW3.2 kmh NW 4.0 mph6.4 kmh 30.23 in1023.7 mb 0.01 in0.3 mm 0.00 in0.0 mm 0.02 in0.5 mm
05:15 AM 47.8°F8.8°C 47.0°F8.3°C 97% 2.0 mph NW3.2 kmh NW 4.0 mph6.4 kmh 30.23 in1023.7 mb 0.02 in0.5 mm 0.12 in3.0 mm 0.02 in0.5 mm
05:10 AM 47.8°F8.8°C 47.0°F8.3°C 97% 2.0 mph NW3.2 kmh NW 4.0 mph6.4 kmh 30.23 in1023.7 mb 0.01 in0.3 mm 0.00 in0.0 mm 0.01 in0.3 mm
05:05 AM 47.8°F8.8°C 47.0°F8.3°C 97% 2.0 mph NW3.2 kmh NW 6.0 mph9.7 kmh 30.23 in1023.7 mb 0.01 in0.3 mm 0.00 in0.0 mm 0.01 in0.3 mm
05:00 AM 47.8°F8.8°C 47.0°F8.3°C 97% 2.0 mph NW3.2 kmh NW 6.0 mph9.7 kmh 30.23 in1023.7 mb 0.01 in0.3 mm 0.00 in0.0 mm 0.01 in0.3 mm
04:55 AM 47.8°F8.8°C 47.0°F8.3°C 97% 2.0 mph NW3.2 kmh NW 6.0 mph9.7 kmh 30.23 in1023.7 mb 0.01 in0.3 mm 0.00 in0.0 mm 0.01 in0.3 mm
04:50 AM 47.8°F8.8°C 47.0°F8.3°C 97% 2.0 mph NW3.2 kmh NW 6.0 mph9.7 kmh 30.23 in1023.7 mb 0.01 in0.3 mm 0.00 in0.0 mm 0.01 in0.3 mm
04:45 AM 47.8°F8.8°C 47.0°F8.3°C 97% 2.0 mph NW3.2 kmh NW 6.0 mph9.7 kmh 30.23 in1023.7 mb 0.01 in0.3 mm 0.00 in0.0 mm 0.01 in0.3 mm
04:40 AM 47.8°F8.8°C 47.0°F8.3°C 97% 2.0 mph NW3.2 kmh NW 4.0 mph6.4 kmh 30.23 in1023.7 mb 0.01 in0.3 mm 0.00 in0.0 mm 0.01 in0.3 mm
04:35 AM 47.8°F8.8°C 47.0°F8.3°C 97% 2.0 mph NW3.2 kmh NW 4.0 mph6.4 kmh 30.23 in1023.7 mb 0.01 in0.3 mm 0.00 in0.0 mm 0.01 in0.3 mm
04:30 AM 47.9°F8.8°C 47.1°F8.4°C 97% 2.0 mph NW3.2 kmh NW 4.0 mph6.4 kmh 30.23 in1023.7 mb 0.01 in0.3 mm 0.00 in0.0 mm 0.01 in0.3 mm
04:25 AM 47.9°F8.8°C 47.1°F8.4°C 97% 2.0 mph NW3.2 kmh NW 5.0 mph8.0 kmh 30.23 in1023.7 mb 0.01 in0.3 mm 0.00 in0.0 mm 0.01 in0.3 mm
04:20 AM 47.9°F8.8°C 47.1°F8.4°C 97% 2.0 mph NW3.2 kmh NW 5.0 mph8.0 kmh 30.23 in1023.7 mb 0.01 in0.3 mm 0.12 in3.0 mm 0.01 in0.3 mm
04:15 AM 47.9°F8.8°C 47.1°F8.4°C 97% 2.1 mph NW3.4 kmh NW 6.0 mph9.7 kmh 30.23 in1023.7 mb 0.00 in0.0 mm 0.00 in0.0 mm 0.00 in0.0 mm
04:10 AM 47.9°F8.8°C 47.1°F8.4°C 97% 2.1 mph NW3.4 kmh NW 6.0 mph9.7 kmh 30.23 in1023.7 mb 0.00 in0.0 mm 0.00 in0.0 mm 0.00 in0.0 mm
04:05 AM 47.9°F8.8°C 47.1°F8.4°C 97% 2.1 mph NW3.4 kmh NW 7.0 mph11.3 kmh 30.23 in1023.7 mb 0.00 in0.0 mm 0.00 in0.0 mm 0.00 in0.0 mm
04:00 AM 47.9°F8.8°C 47.1°F8.4°C 97% 2.6 mph NW4.2 kmh NW 7.0 mph11.3 kmh 30.23 in1023.7 mb 0.00 in0.0 mm 0.00 in0.0 mm 0.00 in0.0 mm
03:55 AM 47.9°F8.8°C 47.1°F8.4°C 97% 2.9 mph NW4.7 kmh NW 5.0 mph8.0 kmh 30.23 in1023.7 mb 0.00 in0.0 mm 0.00 in0.0 mm 0.00 in0.0 mm
03:50 AM 47.8°F8.8°C 47.0°F8.3°C 97% 2.4 mph NW3.9 kmh NW 5.0 mph8.0 kmh 30.23 in1023.7 mb 0.00 in0.0 mm 0.00 in0.0 mm 0.00 in0.0 mm
03:45 AM 47.8°F8.8°C 47.0°F8.3°C 97% 2.0 mph NW3.2 kmh NW 4.0 mph6.4 kmh 30.23 in1023.7 mb 0.00 in0.0 mm 0.00 in0.0 mm 0.00 in0.0 mm
03:40 AM 47.8°F8.8°C 47.0°F8.3°C 97% 2.0 mph NW3.2 kmh NW 4.0 mph6.4 kmh 30.23 in1023.7 mb 0.00 in0.0 mm 0.00 in0.0 mm 0.00 in0.0 mm
03:35 AM 47.8°F8.8°C 47.0°F8.3°C 97% 2.0 mph WNW3.2 kmh WNW 6.0 mph9.7 kmh 30.23 in1023.7 mb 0.00 in0.0 mm 0.00 in0.0 mm 0.00 in0.0 mm
03:30 AM 47.8°F8.8°C 47.0°F8.3°C 97% 2.0 mph WNW3.2 kmh WNW 6.0 mph9.7 kmh 30.23 in1023.7 mb 0.00 in0.0 mm 0.00 in0.0 mm 0.00 in0.0 mm
03:25 AM 47.8°F8.8°C 47.0°F8.3°C 97% 2.0 mph NW3.2 kmh NW 5.0 mph8.0 kmh 30.23 in1023.7 mb 0.00 in0.0 mm 0.00 in0.0 mm 0.00 in0.0 mm
03:20 AM 47.8°F8.8°C 47.0°F8.3°C 97% 2.0 mph WNW3.2 kmh WNW 5.0 mph8.0 kmh 30.23 in1023.7 mb 0.00 in0.0 mm 0.00 in0.0 mm 0.00 in0.0 mm
03:15 AM 47.8°F8.8°C 47.0°F8.3°C 97% 2.0 mph WNW3.2 kmh WNW 4.0 mph6.4 kmh 30.23 in1023.7 mb 0.00 in0.0 mm 0.00 in0.0 mm 0.00 in0.0 mm
03:10 AM 47.8°F8.8°C 47.0°F8.3°C 97% 2.0 mph WNW3.2 kmh WNW 4.0 mph6.4 kmh 30.23 in1023.7 mb 0.00 in0.0 mm 0.00 in0.0 mm 0.00 in0.0 mm
03:05 AM 47.8°F8.8°C 47.0°F8.3°C 97% 2.0 mph WNW3.2 kmh WNW 4.0 mph6.4 kmh 30.23 in1023.7 mb 0.00 in0.0 mm 0.00 in0.0 mm 0.00 in0.0 mm
03:00 AM 47.8°F8.8°C 47.0°F8.3°C 97% 2.0 mph WNW3.2 kmh WNW 4.0 mph6.4 kmh 30.23 in1023.7 mb 0.00 in0.0 mm 0.00 in0.0 mm 0.00 in0.0 mm
02:55 AM 47.8°F8.8°C 47.0°F8.3°C 97% 2.0 mph NW3.2 kmh NW 5.0 mph8.0 kmh 30.23 in1023.7 mb 0.00 in0.0 mm 0.00 in0.0 mm 0.00 in0.0 mm
02:50 AM 47.8°F8.8°C 47.0°F8.3°C 97% 2.0 mph NW3.2 kmh NW 5.0 mph8.0 kmh 30.23 in1023.7 mb 0.00 in0.0 mm 0.00 in0.0 mm 0.00 in0.0 mm
02:45 AM 47.7°F8.7°C 46.9°F8.3°C 97% 2.0 mph NW3.2 kmh NW 4.0 mph6.4 kmh 30.23 in1023.7 mb 0.00 in0.0 mm 0.00 in0.0 mm 0.00 in0.0 mm
02:40 AM 47.7°F8.7°C 46.9°F8.3°C 97% 2.0 mph NW3.2 kmh NW 7.0 mph11.3 kmh 30.23 in1023.7 mb 0.00 in0.0 mm 0.00 in0.0 mm 0.00 in0.0 mm
02:35 AM 47.7°F8.7°C 46.9°F8.3°C 97% 2.4 mph NW3.9 kmh NW 7.0 mph11.3 kmh 30.23 in1023.7 mb 0.00 in0.0 mm 0.00 in0.0 mm 0.00 in0.0 mm
02:30 AM 47.7°F8.7°C 46.9°F8.3°C 97% 2.9 mph NW4.7 kmh NW 6.0 mph9.7 kmh 30.23 in1023.7 mb 0.00 in0.0 mm 0.00 in0.0 mm 0.00 in0.0 mm
02:25 AM 47.7°F8.7°C 46.9°F8.3°C 97% 2.8 mph WNW4.5 kmh WNW 7.0 mph11.3 kmh 30.23 in1023.7 mb 0.00 in0.0 mm 0.00 in0.0 mm 0.00 in0.0 mm
02:20 AM 47.7°F8.7°C 46.9°F8.3°C 97% 2.3 mph WNW3.7 kmh WNW 7.0 mph11.3 kmh 30.23 in1023.7 mb 0.00 in0.0 mm 0.00 in0.0 mm 0.00 in0.0 mm
02:15 AM 47.7°F8.7°C 46.9°F8.3°C 97% 2.4 mph WNW3.9 kmh WNW 6.0 mph9.7 kmh 30.23 in1023.7 mb 0.00 in0.0 mm 0.00 in0.0 mm 0.00 in0.0 mm
02:10 AM 47.7°F8.7°C 46.9°F8.3°C 97% 2.7 mph WNW4.3 kmh WNW 6.0 mph9.7 kmh 30.23 in1023.7 mb 0.00 in0.0 mm 0.00 in0.0 mm 0.00 in0.0 mm
02:05 AM 47.8°F8.8°C 47.0°F8.3°C 97% 2.3 mph WNW3.7 kmh WNW 6.0 mph9.7 kmh 30.22 in1023.4 mb 0.00 in0.0 mm 0.00 in0.0 mm 0.00 in0.0 mm
02:00 AM 47.8°F8.8°C 47.0°F8.3°C 97% 2.5 mph NW4.0 kmh NW 4.0 mph6.4 kmh 30.22 in1023.4 mb 0.00 in0.0 mm 0.00 in0.0 mm 0.00 in0.0 mm
01:55 AM 47.8°F8.8°C 47.0°F8.3°C 97% 3.0 mph NW4.8 kmh NW 4.0 mph6.4 kmh 30.22 in1023.4 mb 0.00 in0.0 mm 0.00 in0.0 mm 0.00 in0.0 mm
01:50 AM 47.8°F8.8°C 47.0°F8.3°C 97% 3.0 mph NW4.8 kmh NW 5.0 mph8.0 kmh 30.23 in1023.7 mb 0.00 in0.0 mm 0.00 in0.0 mm 0.00 in0.0 mm
01:45 AM 47.8°F8.8°C 47.0°F8.3°C 97% 2.6 mph WNW4.2 kmh WNW 6.0 mph9.7 kmh 30.23 in1023.7 mb 0.00 in0.0 mm 0.00 in0.0 mm 0.00 in0.0 mm
01:40 AM 47.8°F8.8°C 47.0°F8.3°C 97% 2.1 mph WNW3.4 kmh WNW 6.0 mph9.7 kmh 30.22 in1023.4 mb 0.00 in0.0 mm 0.00 in0.0 mm 0.00 in0.0 mm
01:35 AM 47.8°F8.8°C 47.0°F8.3°C 97% 2.0 mph WNW3.2 kmh WNW 6.0 mph9.7 kmh 30.22 in1023.4 mb 0.00 in0.0 mm 0.00 in0.0 mm 0.00 in0.0 mm
01:30 AM 47.8°F8.8°C 47.0°F8.3°C 97% 2.0 mph WNW3.2 kmh WNW 4.0 mph6.4 kmh 30.22 in1023.4 mb 0.00 in0.0 mm 0.00 in0.0 mm 0.00 in0.0 mm
01:25 AM 47.8°F8.8°C 47.0°F8.3°C 97% 2.0 mph WNW3.2 kmh WNW 6.0 mph9.7 kmh 30.22 in1023.4 mb 0.00 in0.0 mm 0.00 in0.0 mm 0.00 in0.0 mm
01:20 AM 47.8°F8.8°C 47.0°F8.3°C 97% 2.0 mph WNW3.2 kmh WNW 6.0 mph9.7 kmh 30.22 in1023.4 mb 0.00 in0.0 mm 0.00 in0.0 mm 0.00 in0.0 mm
01:15 AM 47.8°F8.8°C 47.0°F8.3°C 97% 2.0 mph NW3.2 kmh NW 6.0 mph9.7 kmh 30.22 in1023.4 mb 0.00 in0.0 mm 0.00 in0.0 mm 0.00 in0.0 mm
01:10 AM 47.9°F8.8°C 47.1°F8.4°C 97% 2.0 mph NW3.2 kmh NW 4.0 mph6.4 kmh 30.22 in1023.4 mb 0.00 in0.0 mm 0.00 in0.0 mm 0.00 in0.0 mm
01:05 AM 47.9°F8.8°C 46.8°F8.2°C 96% 2.0 mph NW3.2 kmh NW 6.0 mph9.7 kmh 30.22 in1023.4 mb 0.00 in0.0 mm 0.00 in0.0 mm 0.00 in0.0 mm
01:00 AM 47.9°F8.8°C 46.8°F8.2°C 96% 1.8 mph NW2.9 kmh NW 6.0 mph9.7 kmh 30.22 in1023.4 mb 0.00 in0.0 mm 0.00 in0.0 mm 0.00 in0.0 mm
12:55 AM 47.9°F8.8°C 46.8°F8.2°C 96% 1.3 mph NW2.1 kmh NW 5.0 mph8.0 kmh 30.22 in1023.4 mb 0.00 in0.0 mm 0.00 in0.0 mm 0.00 in0.0 mm
12:50 AM 48.0°F8.9°C 46.9°F8.3°C 96% 0.7 mph NNW1.1 kmh NNW 4.0 mph6.4 kmh 30.22 in1023.4 mb 0.00 in0.0 mm 0.00 in0.0 mm 0.00 in0.0 mm
12:45 AM 48.0°F8.9°C 46.9°F8.3°C 96% 0.7 mph NNW1.1 kmh NNW 3.0 mph4.8 kmh 30.22 in1023.4 mb 0.00 in0.0 mm 0.00 in0.0 mm 0.00 in0.0 mm
12:40 AM 48.1°F8.9°C 47.0°F8.3°C 96% 1.0 mph NNW1.6 kmh NNW 3.0 mph4.8 kmh 30.22 in1023.4 mb 0.00 in0.0 mm 0.00 in0.0 mm 0.00 in0.0 mm
12:35 AM 48.1°F8.9°C 47.0°F8.3°C 96% 1.3 mph NW2.1 kmh NW 4.0 mph6.4 kmh 30.22 in1023.4 mb 0.00 in0.0 mm 0.00 in0.0 mm 0.00 in0.0 mm
12:30 AM 48.2°F9.0°C 47.1°F8.4°C 96% 1.8 mph NW2.9 kmh NW 4.0 mph6.4 kmh 30.22 in1023.4 mb 0.00 in0.0 mm 0.00 in0.0 mm 0.00 in0.0 mm
12:25 AM 48.2°F9.0°C 47.1°F8.4°C 96% 2.0 mph NW3.2 kmh NW 5.0 mph8.0 kmh 30.21 in1023.0 mb 0.00 in0.0 mm 0.00 in0.0 mm 0.00 in0.0 mm
12:20 AM 48.3°F9.1°C 47.2°F8.4°C 96% 2.1 mph NW3.4 kmh NW 7.0 mph11.3 kmh 30.21 in1023.0 mb 0.00 in0.0 mm 0.00 in0.0 mm 0.00 in0.0 mm
12:15 AM 48.3°F9.1°C 47.2°F8.4°C 96% 2.4 mph NW3.9 kmh NW 7.0 mph11.3 kmh 30.21 in1023.0 mb 0.00 in0.0 mm 0.00 in0.0 mm 0.00 in0.0 mm
12:10 AM 48.4°F9.1°C 47.3°F8.5°C 96% 2.8 mph NW4.5 kmh NW 6.0 mph9.7 kmh 30.22 in1023.4 mb 0.00 in0.0 mm 0.00 in0.0 mm 0.00 in0.0 mm
12:05 AM 48.4°F9.1°C 47.3°F8.5°C 96% 3.0 mph NW4.8 kmh NW 8.0 mph12.9 kmh 30.22 in1023.4 mb 0.00 in0.0 mm 0.00 in0.0 mm 0.00 in0.0 mm
12:00 AM 48.4°F9.1°C 47.3°F8.5°C 96% 3.0 mph NW4.8 kmh NW 8.0 mph12.9 kmh 30.22 in1023.4 mb 0.00 in0.0 mm 0.00 in0.0 mm 0.00 in0.0 mm